Time;durP1;ratioP1;P1;durP2;ratioP2;P2;SDS_P1;SDS_P2;PMS_P1;PMS_P2;Temp;Humidity;BMP_temperature;BMP_pressure;BME280_temperature;BME280_humidity;BME280_pressure;Samples;Min_cycle;Max_cycle;Signal;HPM_P1;HPM_P2
2022/11/29 00:01:14;;;;;;;6.15;4.30;;;11.10;99.90;;;;;;4988458;28;20210;-75
2022/11/29 00:03:40;;;;;;;9.50;4.80;;;11.10;99.90;;;;;;4989636;28;20624;-75
2022/11/29 00:06:11;;;;;;;6.50;5.55;;;11.20;99.90;;;;;;4989935;28;20171;-75
2022/11/29 00:08:38;;;;;;;6.00;5.00;;;11.20;99.90;;;;;;5008404;28;20218;-75
2022/11/29 00:11:13;;;;;;;7.45;5.65;;;11.20;99.90;;;;;;4988611;28;20207;-74
2022/11/29 00:13:39;;;;;;;7.75;4.38;;;11.20;99.90;;;;;;4989518;28;20174;-74
2022/11/29 00:16:10;;;;;;;9.32;5.50;;;11.20;99.90;;;;;;4988125;28;20163;-75
2022/11/29 00:18:36;;;;;;;7.18;5.00;;;11.20;99.90;;;;;;5005267;28;20647;-75
2022/11/29 00:21:06;;;;;;;8.52;5.68;;;11.20;99.90;;;;;;4989741;28;20229;-75
2022/11/29 00:23:33;;;;;;;5.30;4.53;;;11.20;99.90;;;;;;4989599;28;20182;-75
2022/11/29 00:26:07;;;;;;;8.10;4.85;;;11.20;99.90;;;;;;4990016;28;20628;-75
2022/11/29 00:28:34;;;;;;;7.07;4.88;;;11.20;99.90;;;;;;4990031;28;20678;-75
2022/11/29 00:31:00;;;;;;;5.50;4.78;;;11.10;99.90;;;;;;4989667;28;20195;-75
2022/11/29 00:33:27;;;;;;;6.95;4.68;;;11.20;99.90;;;;;;5004268;28;20237;-75
2022/11/29 00:35:52;;;;;;;7.30;4.90;;;11.20;99.90;;;;;;4989679;28;20195;-75
2022/11/29 00:38:18;;;;;;;10.03;4.27;;;11.20;99.90;;;;;;4989875;28;20673;-75
2022/11/29 00:40:50;;;;;;;10.93;5.73;;;11.20;99.90;;;;;;4972299;28;20587;-74
2022/11/29 00:43:16;;;;;;;7.00;4.88;;;11.20;99.90;;;;;;4988073;28;20838;-74
2022/11/29 00:45:41;;;;;;;6.67;4.60;;;11.20;99.90;;;;;;4992879;28;20175;-74
2022/11/29 00:48:07;;;;;;;6.77;5.00;;;11.20;99.90;;;;;;4989946;28;20515;-74
2022/11/29 00:50:33;;;;;;;6.60;5.30;;;11.20;99.90;;;;;;4989387;28;20183;-75
2022/11/29 00:52:58;;;;;;;8.70;5.17;;;11.20;99.90;;;;;;4988907;28;20194;-75
2022/11/29 00:55:24;;;;;;;9.00;6.10;;;11.30;99.90;;;;;;4989754;28;20174;-75
2022/11/29 00:57:50;;;;;;;9.60;6.20;;;11.30;99.90;;;;;;4989720;28;20539;-75
2022/11/29 01:00:16;;;;;;;9.47;5.23;;;11.30;99.90;;;;;;4988203;28;20606;-75
2022/11/29 01:02:42;;;;;;;9.18;6.13;;;11.30;99.90;;;;;;4987726;28;20179;-74
2022/11/29 01:05:08;;;;;;;9.20;6.00;;;11.30;99.90;;;;;;4988055;28;20572;-75
2022/11/29 01:07:33;;;;;;;10.20;6.13;;;11.30;99.90;;;;;;4989853;28;20179;-74
2022/11/29 01:09:59;;;;;;;12.57;7.93;;;11.30;99.90;;;;;;4989663;28;20974;-75
2022/11/29 01:12:25;;;;;;;10.33;6.93;;;11.30;99.90;;;;;;4988712;28;20221;-75
2022/11/29 01:14:51;;;;;;;11.03;7.37;;;11.40;99.90;;;;;;4989526;28;20541;-75
2022/11/29 01:17:16;;;;;;;8.97;7.10;;;11.40;99.90;;;;;;4989562;28;20163;-74
2022/11/29 01:19:42;;;;;;;8.70;7.57;;;11.40;99.90;;;;;;4987896;28;20294;-74
2022/11/29 01:22:08;;;;;;;11.00;7.20;;;11.40;99.90;;;;;;4989085;28;20539;-75
2022/11/29 01:24:33;;;;;;;12.53;7.07;;;11.40;99.90;;;;;;4990889;28;20199;-75
2022/11/29 01:26:59;;;;;;;10.43;6.47;;;11.40;99.90;;;;;;4972286;28;20206;-75
2022/11/29 01:29:25;;;;;;;12.40;6.60;;;11.40;99.90;;;;;;4994889;28;20270;-75
2022/11/29 01:31:50;;;;;;;9.33;7.00;;;11.40;99.90;;;;;;4992790;28;20342;-74
2022/11/29 01:34:16;;;;;;;12.93;7.47;;;11.40;99.90;;;;;;4992730;28;20170;-75
2022/11/29 01:36:42;;;;;;;10.13;6.70;;;11.40;99.90;;;;;;4994235;28;20254;-75
2022/11/29 01:39:09;;;;;;;8.67;6.00;;;11.40;99.90;;;;;;4992986;28;20241;-75
2022/11/29 01:41:36;;;;;;;9.82;5.95;;;11.40;99.90;;;;;;4991209;28;20194;-75
2022/11/29 01:44:11;;;;;;;9.95;6.25;;;11.40;99.90;;;;;;4991004;28;20210;-75
2022/11/29 01:46:43;;;;;;;7.82;6.53;;;11.40;99.90;;;;;;4992654;28;20162;-75
2022/11/29 01:49:14;;;;;;;9.23;6.30;;;11.40;99.90;;;;;;4991276;28;20228;-74
2022/11/29 01:51:50;;;;;;;9.05;6.30;;;11.40;99.90;;;;;;4990911;28;20202;-75
2022/11/29 01:54:19;;;;;;;8.10;6.32;;;11.50;99.90;;;;;;4992346;28;20182;-74
2022/11/29 01:56:49;;;;;;;9.68;6.97;;;11.50;99.90;;;;;;5007730;28;20537;-74
2022/11/29 01:59:18;;;;;;;9.50;7.40;;;11.50;99.90;;;;;;5008704;28;20175;-75
2022/11/29 02:01:44;;;;;;;10.48;7.40;;;11.50;99.90;;;;;;4994156;28;20211;-75
2022/11/29 02:04:10;;;;;;;9.37;7.10;;;11.50;99.90;;;;;;4992007;28;20171;-75
2022/11/29 02:06:37;;;;;;;15.02;8.50;;;11.50;99.90;;;;;;4990959;28;20578;-75
2022/11/29 02:09:04;;;;;;;14.60;10.18;;;11.50;99.90;;;;;;5007242;28;20295;-74
2022/11/29 02:11:29;;;;;;;12.20;9.18;;;11.60;99.90;;;;;;4991803;28;20261;-75
2022/11/29 02:14:15;;;;;;;11.00;8.73;;;11.60;99.90;;;;;;5006694;28;20175;-75
2022/11/29 02:16:50;;;;;;;12.13;8.73;;;11.60;99.90;;;;;;4967248;28;20253;-75
2022/11/29 02:19:22;;;;;;;13.18;7.55;;;11.60;99.90;;;;;;4990950;28;20201;-74
2022/11/29 02:22:01;;;;;;;13.52;7.28;;;11.60;99.90;;;;;;5006949;28;20269;-75
2022/11/29 02:24:40;;;;;;;9.27;7.30;;;11.60;99.90;;;;;;5007270;28;20225;-75
2022/11/29 02:27:43;;;;;;;10.45;7.18;;;11.60;99.90;;;;;;4991978;28;20225;-75
2022/11/29 02:30:14;;;;;;;13.32;7.22;;;11.60;99.90;;;;;;4991747;28;20661;-75
2022/11/29 02:32:48;;;;;;;8.07;6.70;;;11.60;99.90;;;;;;4991301;28;20194;-75
2022/11/29 02:35:42;;;;;;;8.82;7.45;;;11.60;99.90;;;;;;5006986;28;20205;-75
2022/11/29 02:38:59;;;;;;;13.60;7.18;;;11.60;99.90;;;;;;5005261;28;20659;-75
2022/11/29 02:42:02;;;;;;;12.27;7.28;;;11.60;99.90;;;;;;4966676;28;20257;-75
2022/11/29 02:44:58;;;;;;;10.57;6.55;;;11.60;99.90;;;;;;5011595;28;20174;-75
2022/11/29 02:47:33;;;;;;;10.35;7.50;;;11.60;99.90;;;;;;4993788;28;20258;-74
2022/11/29 02:50:14;;;;;;;10.82;7.32;;;11.70;99.90;;;;;;5011261;28;20631;-75
2022/11/29 02:52:53;;;;;;;15.23;8.40;;;11.70;99.90;;;;;;5009428;28;20221;-74
2022/11/29 02:55:33;;;;;;;11.98;8.70;;;11.70;99.90;;;;;;5009824;28;20224;-75
2022/11/29 02:58:19;;;;;;;19.48;8.60;;;11.70;99.90;;;;;;5011497;28;20174;-75
2022/11/29 03:01:16;;;;;;;14.50;8.90;;;11.60;99.90;;;;;;5010891;28;20219;-75
2022/11/29 03:04:22;;;;;;;14.43;7.72;;;11.70;99.90;;;;;;4989657;28;20780;-74
2022/11/29 03:07:06;;;;;;;13.57;8.75;;;11.70;99.90;;;;;;4996788;28;20201;-74
2022/11/29 03:09:48;;;;;;;14.07;8.35;;;11.70;99.90;;;;;;5030178;28;20440;-74
2022/11/29 03:12:24;;;;;;;11.80;8.50;;;11.70;99.90;;;;;;5028545;28;20216;-74
2022/11/29 03:15:03;;;;;;;17.27;8.00;;;11.70;99.90;;;;;;5026986;28;20158;-74
2022/11/29 03:17:51;;;;;;;13.35;7.80;;;11.60;99.90;;;;;;5031074;28;20170;-74
2022/11/29 03:20:35;;;;;;;15.68;8.30;;;11.70;99.90;;;;;;5030165;28;20178;-74
2022/11/29 03:23:16;;;;;;;14.32;8.27;;;11.70;99.90;;;;;;5031595;28;20198;-74
2022/11/29 03:25:49;;;;;;;18.55;8.55;;;11.70;99.90;;;;;;5029415;28;20572;-74
2022/11/29 03:28:23;;;;;;;10.80;8.82;;;11.70;99.90;;;;;;5028863;28;20173;-73
2022/11/29 03:31:12;;;;;;;15.40;8.40;;;11.70;99.90;;;;;;5031445;28;20238;-74
2022/11/29 03:33:41;;;;;;;13.35;7.85;;;11.70;99.90;;;;;;5019129;28;20175;-74
2022/11/29 03:36:23;;;;;;;12.52;8.50;;;11.70;99.90;;;;;;5013285;28;20475;-74
2022/11/29 03:38:54;;;;;;;14.75;8.93;;;11.70;99.90;;;;;;5013268;28;20216;-75
2022/11/29 03:41:42;;;;;;;10.50;8.65;;;11.70;99.90;;;;;;5011625;28;20190;-74
2022/11/29 03:44:23;;;;;;;13.82;9.13;;;11.70;99.90;;;;;;5012578;28;20178;-74
2022/11/29 03:47:00;;;;;;;11.13;9.15;;;11.70;99.90;;;;;;5013229;28;20540;-74
2022/11/29 03:49:55;;;;;;;14.20;10.43;;;11.70;99.90;;;;;;5011569;28;20196;-74
2022/11/29 03:52:32;;;;;;;13.00;9.20;;;11.70;99.90;;;;;;5011374;28;20604;-74
2022/11/29 03:55:28;;;;;;;11.73;9.40;;;11.70;99.90;;;;;;5010662;28;20667;-75
2022/11/29 03:58:31;;;;;;;21.77;10.80;;;11.70;99.90;;;;;;5010262;28;20162;-74
2022/11/29 04:01:30;;;;;;;17.67;10.77;;;11.70;99.90;;;;;;5010064;28;20197;-74
2022/11/29 04:04:18;;;;;;;18.73;11.90;;;11.70;99.90;;;;;;5008708;28;20181;-75
2022/11/29 04:06:55;;;;;;;22.00;14.57;;;11.70;99.90;;;;;;5010132;28;20292;-75
2022/11/29 04:09:55;;;;;;;18.85;12.27;;;11.70;99.90;;;;;;5009842;28;20287;-74
2022/11/29 04:12:59;;;;;;;20.17;12.90;;;11.70;99.90;;;;;;5007599;28;20576;-74
2022/11/29 04:15:57;;;;;;;18.73;13.00;;;11.70;99.90;;;;;;4993727;28;20177;-74
2022/11/29 04:18:41;;;;;;;22.80;14.30;;;11.70;99.90;;;;;;5000829;28;20213;-74
2022/11/29 04:21:18;;;;;;;25.52;16.08;;;11.70;99.90;;;;;;5008405;28;20189;-75
2022/11/29 04:24:10;;;;;;;28.52;16.63;;;11.70;99.90;;;;;;5010335;28;20170;-74
2022/11/29 04:27:01;;;;;;;23.90;15.20;;;11.70;99.90;;;;;;4993230;28;20182;-75
2022/11/29 04:30:00;;;;;;;26.63;16.63;;;11.70;99.90;;;;;;5010873;28;20610;-74
2022/11/29 04:33:15;;;;;;;27.73;16.63;;;11.70;99.90;;;;;;4991298;28;20213;-74
2022/11/29 04:36:10;;;;;;;29.30;16.70;;;11.70;99.90;;;;;;5010687;28;20217;-74
2022/11/29 04:39:10;;;;;;;28.40;16.52;;;11.70;99.90;;;;;;5009722;28;20170;-74
2022/11/29 04:41:42;;;;;;;26.15;17.13;;;11.70;99.90;;;;;;5009343;28;20542;-75
2022/11/29 04:44:18;;;;;;;29.60;17.92;;;11.70;99.90;;;;;;5009764;28;20178;-75
2022/11/29 04:47:03;;;;;;;29.00;17.38;;;11.70;99.90;;;;;;5008077;28;20170;-75
2022/11/29 04:49:41;;;;;;;35.67;18.50;;;11.70;99.90;;;;;;5010464;28;20248;-75
2022/11/29 04:52:38;;;;;;;27.33;16.83;;;11.70;99.90;;;;;;5009800;28;20292;-75
2022/11/29 04:55:40;;;;;;;30.83;18.95;;;11.70;99.90;;;;;;5012017;28;20224;-75
2022/11/29 04:58:13;;;;;;;28.55;17.73;;;11.70;99.90;;;;;;5009502;28;20253;-75
2022/11/29 05:01:02;;;;;;;34.05;17.83;;;11.70;99.90;;;;;;5007976;28;20612;-74
2022/11/29 05:03:55;;;;;;;36.05;21.35;;;11.70;99.90;;;;;;5011167;28;20527;-75
2022/11/29 05:06:24;;;;;;;28.20;19.07;;;11.70;99.90;;;;;;5014319;28;20174;-75
2022/11/29 05:08:57;;;;;;;31.98;19.25;;;11.70;99.90;;;;;;5013142;28;20952;-75
2022/11/29 05:11:57;;;;;;;33.15;20.25;;;11.70;99.90;;;;;;5011669;28;20234;-75
2022/11/29 05:14:41;;;;;;;30.10;19.50;;;11.70;99.90;;;;;;5011843;28;20193;-75
2022/11/29 05:17:31;;;;;;;34.83;19.45;;;11.70;99.90;;;;;;5012919;28;20178;-75
2022/11/29 05:20:37;;;;;;;32.95;19.67;;;11.60;99.90;;;;;;5012668;28;20299;-75
2022/11/29 05:23:22;;;;;;;40.65;22.13;;;11.60;99.90;;;;;;4970228;28;20758;-75
2022/11/29 05:26:04;;;;;;;36.35;21.08;;;11.60;99.90;;;;;;4970724;28;20219;-76
2022/11/29 05:28:54;;;;;;;31.08;19.58;;;11.60;99.90;;;;;;4994591;28;20525;-76
2022/11/29 05:31:32;;;;;;;33.85;20.70;;;11.50;99.90;;;;;;5012361;28;20678;-76
2022/11/29 05:34:36;;;;;;;39.28;22.20;;;11.50;99.90;;;;;;4994704;28;20174;-76
2022/11/29 05:37:10;;;;;;;36.15;21.05;;;11.40;99.90;;;;;;5012646;28;20162;-76
2022/11/29 05:39:48;;;;;;;42.13;21.27;;;11.40;99.90;;;;;;5011029;28;20540;-75
2022/11/29 05:42:23;;;;;;;37.78;21.55;;;11.40;99.90;;;;;;5011603;28;20170;-75
2022/11/29 05:45:11;;;;;;;43.05;23.48;;;11.30;99.90;;;;;;5015033;28;20649;-75
2022/11/29 05:48:03;;;;;;;37.33;21.75;;;11.30;99.90;;;;;;5012373;28;20174;-75
2022/11/29 05:50:44;;;;;;;39.95;20.95;;;11.30;99.90;;;;;;5012190;28;20288;-75
2022/11/29 05:53:43;;;;;;;36.38;21.00;;;11.20;99.90;;;;;;5009861;28;20178;-76
2022/11/29 05:56:14;;;;;;;37.28;22.13;;;11.20;99.90;;;;;;5012218;28;20170;-76
2022/11/29 05:58:56;;;;;;;42.75;22.20;;;11.20;99.90;;;;;;5010841;28;20162;-74
2022/11/29 06:01:26;;;;;;;34.75;20.92;;;11.20;99.90;;;;;;5011646;28;20201;-75
2022/11/29 06:04:11;;;;;;;38.70;22.80;;;11.20;99.90;;;;;;5010338;28;20232;-75
2022/11/29 06:06:56;;;;;;;45.85;22.70;;;11.20;99.90;;;;;;5011944;28;20579;-75
2022/11/29 06:09:27;;;;;;;49.30;25.70;;;11.20;99.90;;;;;;5010028;28;20186;-75
2022/11/29 06:12:05;;;;;;;52.47;25.23;;;11.20;99.90;;;;;;4977575;28;20228;-76
2022/11/29 06:14:43;;;;;;;58.25;27.58;;;11.20;99.90;;;;;;5010815;28;20178;-75
2022/11/29 06:17:47;;;;;;;63.58;27.80;;;11.10;99.90;;;;;;4994102;28;20213;-75
2022/11/29 06:20:19;;;;;;;56.90;29.55;;;11.10;99.90;;;;;;5013594;28;20245;-75
2022/11/29 06:22:49;;;;;;;59.88;29.00;;;11.10;99.90;;;;;;5011123;28;20182;-75
2022/11/29 06:25:38;;;;;;;64.18;31.20;;;11.10;99.90;;;;;;5011715;28;20175;-74
2022/11/29 06:28:19;;;;;;;61.78;30.00;;;11.10;99.90;;;;;;5011675;28;20174;-74
2022/11/29 06:31:13;;;;;;;60.40;27.38;;;11.10;99.90;;;;;;5010186;28;20186;-74
2022/11/29 06:34:18;;;;;;;62.60;28.05;;;11.10;99.90;;;;;;5011059;28;20639;-75
2022/11/29 06:36:49;;;;;;;58.78;28.20;;;11.10;99.90;;;;;;5010768;28;20179;-74
2022/11/29 06:39:15;;;;;;;64.75;29.40;;;11.10;99.90;;;;;;5010375;28;20202;-75
2022/11/29 06:41:41;;;;;;;70.05;30.33;;;11.10;99.90;;;;;;5009798;28;20195;-74
2022/11/29 06:44:08;;;;;;;53.03;27.37;;;11.10;99.90;;;;;;5011113;28;20174;-75
2022/11/29 06:46:53;;;;;;;53.28;26.08;;;11.10;99.90;;;;;;5010036;28;20565;-75
2022/11/29 06:49:24;;;;;;;54.97;28.17;;;11.10;99.90;;;;;;5010087;28;20181;-75
2022/11/29 06:52:05;;;;;;;59.42;28.08;;;11.10;99.90;;;;;;5010586;28;20825;-75
2022/11/29 06:54:40;;;;;;;56.53;27.58;;;11.10;99.90;;;;;;5010071;28;20205;-75
2022/11/29 06:57:12;;;;;;;55.78;25.27;;;11.10;99.90;;;;;;5010847;28;20634;-76
2022/11/29 07:00:05;;;;;;;51.35;26.60;;;11.10;99.90;;;;;;5011927;28;20182;-75
2022/11/29 07:02:44;;;;;;;53.30;26.77;;;11.10;99.90;;;;;;5013671;28;20182;-75
2022/11/29 07:05:19;;;;;;;58.40;28.77;;;11.10;99.90;;;;;;5009981;28;20174;-75
2022/11/29 07:07:45;;;;;;;57.55;30.50;;;11.10;99.90;;;;;;5011921;28;20261;-75
2022/11/29 07:10:19;;;;;;;56.67;29.20;;;11.10;99.90;;;;;;5010671;28;20182;-75
2022/11/29 07:12:46;;;;;;;54.78;26.75;;;11.10;99.90;;;;;;5010209;28;20255;-75
2022/11/29 07:15:21;;;;;;;54.67;25.77;;;11.10;99.90;;;;;;5010640;28;20638;-74
2022/11/29 07:17:56;;;;;;;42.33;24.27;;;11.10;99.90;;;;;;5010743;28;20165;-75
2022/11/29 07:21:00;;;;;;;66.10;27.63;;;11.10;99.90;;;;;;5010341;28;20182;-74
2022/11/29 07:23:34;;;;;;;65.50;27.25;;;11.10;99.90;;;;;;4990833;28;20593;-74
2022/11/29 07:26:52;;;;;;;44.55;23.15;;;11.10;99.90;;;;;;5008923;28;20221;-74
2022/11/29 07:29:25;;;;;;;44.35;21.92;;;11.10;99.90;;;;;;4987592;28;20190;-74
2022/11/29 07:31:54;;;;;;;54.08;24.77;;;11.10;99.90;;;;;;5009999;28;20213;-74
2022/11/29 07:34:54;;;;;;;57.60;26.10;;;11.10;99.90;;;;;;5010709;28;20193;-74
2022/11/29 07:37:50;;;;;;;57.40;27.52;;;11.10;99.90;;;;;;4992809;28;20232;-75
2022/11/29 07:40:33;;;;;;;53.08;26.08;;;11.10;99.90;;;;;;5009470;28;20193;-75
2022/11/29 07:43:21;;;;;;;44.17;24.08;;;11.10;99.90;;;;;;5008997;28;20212;-75
2022/11/29 07:45:47;;;;;;;59.40;26.67;;;11.10;99.90;;;;;;5009108;28;20171;-74
2022/11/29 07:48:16;;;;;;;64.15;27.95;;;11.10;99.90;;;;;;5008612;28;20206;-74
2022/11/29 07:50:42;;;;;;;55.80;29.40;;;11.20;99.90;;;;;;5009568;28;20598;-74
2022/11/29 07:53:19;;;;;;;57.05;27.88;;;11.20;99.90;;;;;;5007637;28;20167;-74
2022/11/29 07:55:46;;;;;;;57.20;27.48;;;11.20;99.90;;;;;;5024071;28;20225;-73
2022/11/29 07:58:14;;;;;;;56.40;27.85;;;11.20;99.90;;;;;;5009606;28;20253;-74
2022/11/29 08:00:41;;;;;;;64.80;31.52;;;11.20;99.90;;;;;;4991951;28;20763;-74
2022/11/29 08:03:07;;;;;;;56.50;27.38;;;11.20;99.90;;;;;;5007705;28;20580;-74
2022/11/29 08:05:34;;;;;;;48.72;23.50;;;11.30;99.90;;;;;;5007183;28;20182;-73
2022/11/29 08:08:00;;;;;;;53.45;26.90;;;11.30;99.90;;;;;;5009041;28;20204;-73
2022/11/29 08:10:27;;;;;;;56.50;27.02;;;11.30;99.90;;;;;;5009606;28;20216;-73
2022/11/29 08:12:53;;;;;;;64.47;27.65;;;11.30;99.90;;;;;;5007828;28;20255;-72
2022/11/29 08:15:20;;;;;;;50.60;25.45;;;11.30;99.90;;;;;;4990104;28;20185;-73
2022/11/29 08:17:49;;;;;;;60.03;28.20;;;11.30;99.90;;;;;;5016503;28;20179;-73
2022/11/29 08:20:16;;;;;;;55.60;26.25;;;11.30;99.90;;;;;;5008052;28;20182;-73
2022/11/29 08:22:42;;;;;;;56.85;27.52;;;11.30;99.90;;;;;;5008761;28;20170;-73
2022/11/29 08:25:09;;;;;;;50.03;23.02;;;11.30;99.90;;;;;;5007812;28;20178;-74
2022/11/29 08:27:36;;;;;;;54.63;27.30;;;11.30;99.90;;;;;;5009295;28;20174;-75
2022/11/29 08:30:04;;;;;;;46.35;22.75;;;11.40;99.90;;;;;;5008012;28;20221;-75
2022/11/29 08:32:30;;;;;;;47.65;22.15;;;11.40;99.90;;;;;;5007311;28;20209;-75
2022/11/29 08:34:56;;;;;;;53.42;24.95;;;11.40;99.90;;;;;;5007772;28;20247;-75
2022/11/29 08:37:22;;;;;;;42.37;20.87;;;11.40;99.90;;;;;;5008989;28;20671;-76
2022/11/29 08:39:48;;;;;;;53.43;25.60;;;11.50;99.90;;;;;;5013317;28;20276;-75
2022/11/29 08:42:13;;;;;;;55.20;24.73;;;11.50;99.90;;;;;;5011102;28;20205;-76
2022/11/29 08:44:39;;;;;;;42.33;19.70;;;11.50;99.90;;;;;;5012121;28;20256;-76
2022/11/29 08:50:02;;;;;;;39.95;20.10;;;11.50;99.90;;;;;;5012898;28;20623;-75
2022/11/29 08:55:22;;;;;;;40.33;19.95;;;11.60;99.90;;;;;;5008326;28;20638;-75
2022/11/29 08:57:49;;;;;;;47.50;22.58;;;11.60;99.90;;;;;;5011963;28;20179;-75
2022/11/29 09:00:16;;;;;;;42.42;21.40;;;11.60;99.90;;;;;;5012953;28;20256;-75
2022/11/29 09:02:41;;;;;;;41.10;21.17;;;11.60;99.90;;;;;;5010677;28;20185;-76
2022/11/29 09:05:09;;;;;;;41.07;21.23;;;11.60;99.90;;;;;;4991117;28;20178;-76
2022/11/29 09:07:34;;;;;;;45.15;21.83;;;11.70;99.90;;;;;;5011068;28;20260;-75
2022/11/29 09:10:06;;;;;;;48.03;23.70;;;11.70;99.90;;;;;;4998080;28;20730;-75
2022/11/29 09:12:33;;;;;;;45.50;23.48;;;11.70;99.90;;;;;;5011617;28;20554;-76
2022/11/29 09:14:59;;;;;;;52.75;23.65;;;11.70;99.90;;;;;;5012760;28;20634;-76
2022/11/29 09:17:25;;;;;;;52.60;24.80;;;11.70;99.90;;;;;;5012380;28;20167;-75
2022/11/29 09:19:51;;;;;;;54.72;25.13;;;11.70;99.90;;;;;;5012408;28;21168;-76
2022/11/29 09:22:17;;;;;;;51.58;25.75;;;11.70;99.90;;;;;;5011572;28;20718;-75
2022/11/29 09:24:45;;;;;;;52.93;27.30;;;11.70;99.90;;;;;;5011249;28;20162;-75
2022/11/29 09:27:10;;;;;;;49.80;26.58;;;11.80;99.90;;;;;;5015265;28;20564;-75
2022/11/29 09:29:36;;;;;;;49.10;23.70;;;11.80;99.90;;;;;;5012458;28;20232;-75
2022/11/29 09:32:02;;;;;;;58.70;27.17;;;11.80;99.90;;;;;;5011477;28;20682;-75
2022/11/29 09:34:28;;;;;;;47.47;24.10;;;11.80;99.90;;;;;;5012617;28;20174;-75
2022/11/29 09:36:54;;;;;;;47.57;23.50;;;11.80;99.90;;;;;;5012379;28;20573;-76
2022/11/29 09:39:20;;;;;;;47.10;24.47;;;11.80;99.90;;;;;;5012143;28;20182;-75
2022/11/29 09:42:04;;;;;;;46.77;24.97;;;11.80;99.90;;;;;;5010456;28;20213;-76
2022/11/29 09:44:46;;;;;;;54.40;27.20;;;11.90;99.90;;;;;;5012296;28;20929;-75
2022/11/29 09:47:17;;;;;;;52.28;26.90;;;11.80;99.90;;;;;;5011886;28;20174;-75
2022/11/29 09:49:58;;;;;;;54.47;28.35;;;11.80;99.90;;;;;;5010869;28;20228;-75
2022/11/29 09:52:41;;;;;;;51.72;29.40;;;11.80;99.90;;;;;;5009868;28;20202;-75
2022/11/29 09:55:25;;;;;;;50.97;23.73;;;11.80;99.90;;;;;;5012329;28;20600;-75
2022/11/29 09:57:52;;;;;;;48.40;27.40;;;11.80;99.90;;;;;;5010906;28;20174;-75
2022/11/29 10:00:18;;;;;;;52.00;29.45;;;11.80;99.90;;;;;;5010481;28;20628;-74
2022/11/29 10:03:19;;;;;;;47.92;26.80;;;11.90;99.90;;;;;;5011389;28;20177;-75
2022/11/29 10:05:50;;;;;;;48.50;24.77;;;11.90;99.90;;;;;;5013552;28;20293;-75
2022/11/29 10:08:33;;;;;;;53.17;26.05;;;11.90;99.90;;;;;;5011907;28;20566;-74
2022/11/29 10:11:19;;;;;;;54.80;25.13;;;11.90;99.90;;;;;;5007549;28;20566;-76
2022/11/29 10:13:54;;;;;;;57.70;27.98;;;11.90;99.90;;;;;;5009796;28;20670;-75
2022/11/29 10:16:23;;;;;;;58.05;29.42;;;11.90;99.90;;;;;;5011387;28;20213;-76
2022/11/29 10:18:50;;;;;;;50.65;25.73;;;12.00;99.90;;;;;;5011712;28;20182;-75
2022/11/29 10:21:23;;;;;;;43.38;23.73;;;12.00;99.90;;;;;;5010031;28;20190;-75
2022/11/29 10:24:00;;;;;;;41.92;23.33;;;12.00;99.90;;;;;;5009961;28;20183;-75
2022/11/29 10:26:27;;;;;;;42.97;24.13;;;12.00;99.90;;;;;;5011483;28;20182;-75
2022/11/29 10:28:55;;;;;;;50.37;26.03;;;12.00;99.90;;;;;;5011129;28;20537;-75
2022/11/29 10:31:25;;;;;;;40.45;22.67;;;12.00;99.90;;;;;;4993423;28;20644;-76
2022/11/29 10:33:52;;;;;;;42.22;20.30;;;12.10;99.90;;;;;;5009120;28;20170;-75
2022/11/29 10:36:43;;;;;;;40.30;23.48;;;12.10;99.90;;;;;;5011487;28;20171;-75
2022/11/29 10:39:35;;;;;;;44.20;23.45;;;12.10;99.90;;;;;;5011074;28;20170;-75
2022/11/29 10:42:05;;;;;;;45.03;23.33;;;12.10;99.90;;;;;;5015664;28;20177;-75
2022/11/29 10:44:32;;;;;;;41.58;23.40;;;12.20;99.90;;;;;;5010931;28;20167;-75
2022/11/29 10:47:01;;;;;;;34.65;20.45;;;12.20;99.90;;;;;;5009913;28;20198;-76
2022/11/29 10:49:28;;;;;;;42.80;22.50;;;12.20;99.90;;;;;;5010735;28;20221;-74
2022/11/29 10:51:54;;;;;;;44.40;23.20;;;12.20;99.90;;;;;;5008755;28;20205;-75
2022/11/29 10:54:40;;;;;;;38.93;20.10;;;12.20;99.90;;;;;;5046746;22;20220;-76
2022/11/29 10:57:19;;;;;;;41.55;20.35;;;12.10;99.90;;;;;;5036116;28;20592;-75
2022/11/29 11:00:00;;;;;;;35.10;20.87;;;12.20;99.90;;;;;;5040197;28;20181;-75
2022/11/29 11:02:27;;;;;;;38.50;21.98;;;12.10;99.90;;;;;;5046458;28;21020;-76
2022/11/29 11:04:53;;;;;;;39.77;21.50;;;12.10;99.90;;;;;;5051318;28;20189;-75
2022/11/29 11:07:32;;;;;;;33.63;19.40;;;12.10;99.90;;;;;;5033484;28;21154;-76
2022/11/29 11:09:58;;;;;;;38.42;21.73;;;12.10;99.90;;;;;;5051771;28;21017;-74
2022/11/29 11:12:27;;;;;;;37.73;19.70;;;12.10;99.90;;;;;;5049008;28;20580;-75
2022/11/29 11:15:13;;;;;;;35.60;21.10;;;12.20;99.90;;;;;;5049995;28;20595;-75
2022/11/29 11:17:41;;;;;;;33.40;19.27;;;12.20;99.90;;;;;;5026385;28;21175;-75
2022/11/29 11:20:22;;;;;;;36.70;20.20;;;12.20;99.90;;;;;;5030228;28;20600;-76
2022/11/29 11:23:19;;;;;;;28.90;18.07;;;12.30;99.90;;;;;;5030455;28;20590;-76
2022/11/29 11:25:45;;;;;;;33.15;16.92;;;12.30;99.90;;;;;;5034445;28;20683;-75
2022/11/29 11:28:29;;;;;;;31.33;17.20;;;12.40;99.90;;;;;;5030922;28;20685;-75
2022/11/29 11:31:04;;;;;;;29.33;16.10;;;12.40;99.90;;;;;;5029488;28;20623;-76
2022/11/29 11:33:34;;;;;;;28.40;16.73;;;12.40;99.90;;;;;;5028673;28;20269;-76
2022/11/29 11:36:03;;;;;;;25.80;17.23;;;12.50;99.90;;;;;;5031859;28;20664;-76
2022/11/29 11:38:29;;;;;;;25.20;16.80;;;12.50;99.90;;;;;;5030960;28;20565;-75
2022/11/29 11:41:15;;;;;;;28.47;17.93;;;12.50;99.90;;;;;;5031026;28;20664;-76
2022/11/29 11:43:47;;;;;;;27.30;16.17;;;12.50;99.90;;;;;;5031316;28;21147;-76
2022/11/29 11:46:13;;;;;;;24.90;17.23;;;12.60;99.90;;;;;;5010449;28;20627;-75
2022/11/29 11:48:41;;;;;;;26.53;17.60;;;12.70;99.90;;;;;;5030719;28;20616;-75
2022/11/29 11:51:20;;;;;;;31.37;19.20;;;12.80;99.90;;;;;;5034913;28;20206;-76
2022/11/29 11:53:51;;;;;;;29.97;18.30;;;12.80;99.90;;;;;;5052459;28;20635;-76
2022/11/29 11:56:18;;;;;;;30.73;18.83;;;12.90;99.90;;;;;;5028317;28;20581;-76
2022/11/29 11:58:52;;;;;;;22.60;15.57;;;13.00;99.90;;;;;;5029051;28;20668;-75
2022/11/29 12:01:34;;;;;;;24.87;15.83;;;13.10;99.90;;;;;;5028952;28;20591;-75
2022/11/29 12:04:23;;;;;;;29.83;17.00;;;13.10;99.90;;;;;;5033261;28;20648;-76
2022/11/29 12:06:57;;;;;;;31.97;18.60;;;13.10;99.90;;;;;;5030019;28;20574;-76
2022/11/29 12:09:47;;;;;;;33.20;18.38;;;13.10;99.90;;;;;;5028526;28;21123;-76
2022/11/29 12:12:22;;;;;;;28.60;17.33;;;13.00;99.90;;;;;;5028053;28;20232;-77
2022/11/29 12:14:57;;;;;;;28.70;17.20;;;13.00;99.90;;;;;;5029180;28;21163;-77
2022/11/29 12:17:31;;;;;;;29.27;18.40;;;13.00;99.90;;;;;;5012453;28;20961;-77
2022/11/29 12:20:06;;;;;;;30.20;19.43;;;13.00;99.90;;;;;;5028767;28;20951;-76
2022/11/29 12:22:39;;;;;;;36.03;18.67;;;13.00;99.90;;;;;;5028840;28;20631;-77
2022/11/29 12:25:13;;;;;;;32.30;17.40;;;12.90;99.90;;;;;;5027132;28;20687;-77
2022/11/29 12:27:39;;;;;;;29.23;17.80;;;12.90;99.90;;;;;;5027583;28;20623;-76
2022/11/29 12:30:11;;;;;;;32.40;18.77;;;12.90;99.90;;;;;;5028382;28;20942;-77
2022/11/29 12:33:08;;;;;;;30.20;19.03;;;12.80;99.90;;;;;;5026721;28;20632;-75
2022/11/29 12:35:56;;;;;;;29.43;17.03;;;12.80;99.90;;;;;;5028264;28;20626;-75
2022/11/29 12:38:50;;;;;;;30.53;16.87;;;12.80;99.90;;;;;;5022172;28;20588;-74
2022/11/29 12:41:40;;;;;;;26.53;17.87;;;12.80;99.90;;;;;;5027473;28;20570;-74
2022/11/29 12:44:16;;;;;;;25.73;15.80;;;12.70;99.90;;;;;;5028975;28;21163;-75
2022/11/29 12:46:56;;;;;;;34.63;18.87;;;12.70;99.90;;;;;;5028251;28;20596;-76
2022/11/29 12:49:35;;;;;;;26.52;18.17;;;12.70;99.90;;;;;;5009856;28;20569;-77
2022/11/29 12:52:12;;;;;;;35.92;19.60;;;12.60;99.90;;;;;;5007693;28;20201;-77
2022/11/29 12:55:02;;;;;;;31.10;18.20;;;12.60;99.90;;;;;;5009273;28;20566;-77
2022/11/29 12:57:28;;;;;;;29.00;18.17;;;12.60;99.90;;;;;;5009922;28;20242;-77
2022/11/29 13:00:07;;;;;;;29.63;17.17;;;12.60;99.90;;;;;;5015242;28;20683;-77
2022/11/29 13:03:02;;;;;;;32.60;18.20;;;12.60;99.90;;;;;;5023208;28;20263;-76
2022/11/29 13:05:51;;;;;;;33.97;19.10;;;12.50;99.90;;;;;;5020704;28;20592;-77
2022/11/29 13:08:49;;;;;;;35.67;20.57;;;12.60;99.90;;;;;;5025376;28;20575;-77
2022/11/29 13:11:25;;;;;;;34.57;17.97;;;12.50;99.90;;;;;;5023558;28;20620;-77
2022/11/29 13:14:29;;;;;;;29.13;18.15;;;12.60;99.90;;;;;;5007055;28;20659;-77
2022/11/29 13:17:04;;;;;;;36.25;20.90;;;12.50;99.90;;;;;;5033643;28;20252;-76
2022/11/29 13:19:51;;;;;;;28.63;18.88;;;12.50;99.90;;;;;;5029383;28;20733;-77
2022/11/29 13:22:43;;;;;;;33.70;20.50;;;12.50;99.90;;;;;;5028941;28;20184;-77
2022/11/29 13:25:40;;;;;;;31.90;20.85;;;12.50;99.90;;;;;;5032222;28;20576;-76